createdAt,value
2022-08-11T00:09:42.411Z,101302.25
2022-08-11T00:20:12.930Z,101294.09
2022-08-11T00:30:10.673Z,101298.59
2022-08-11T00:40:23.254Z,101304.16
2022-08-11T00:50:48.238Z,101300.06
2022-08-11T01:01:02.266Z,101309.81
2022-08-11T01:11:33.870Z,101298.97
2022-08-11T01:22:16.763Z,101307.97
2022-08-11T01:32:36.984Z,101311.34
2022-08-11T01:43:26.622Z,101311.19
2022-08-11T01:53:40.540Z,101308.56
2022-08-11T02:03:57.924Z,101312.81
2022-08-11T02:14:24.333Z,101305.94
2022-08-11T02:24:34.847Z,101320.03
2022-08-11T02:35:00.665Z,101320.88
2022-08-11T02:45:40.003Z,101311.94
2022-08-11T02:56:14.143Z,101319.81
2022-08-11T03:06:30.117Z,101320.66
2022-08-11T03:16:46.754Z,101320.78
2022-08-11T03:26:57.508Z,101317.50
2022-08-11T03:37:40.119Z,101311.50
2022-08-11T03:47:55.572Z,101312.19
2022-08-11T03:58:18.576Z,101311.91
2022-08-11T04:08:59.176Z,101316.25
2022-08-11T04:19:31.836Z,101324.97
2022-08-11T04:30:02.027Z,101319.22
2022-08-11T04:40:42.668Z,101324.91
2022-08-11T04:51:23.799Z,101333.72
2022-08-11T05:01:43.897Z,101338.22
2022-08-11T05:12:02.736Z,101342.06
2022-08-11T05:22:29.914Z,101350.53
2022-08-11T05:33:02.316Z,101353.59
2022-08-11T05:43:32.168Z,101348.97
2022-08-11T05:53:52.968Z,101353.41
2022-08-11T06:04:15.741Z,101361.50
2022-08-11T06:14:19.246Z,101361.94
2022-08-11T06:24:21.627Z,101354.06
2022-08-11T06:34:34.201Z,101354.47
2022-08-11T06:44:47.940Z,101351.69
2022-08-11T06:54:57.315Z,101348.56
2022-08-11T07:05:24.546Z,101350.34
2022-08-11T07:16:12.927Z,101341.78
2022-08-11T07:26:29.686Z,101350.88
2022-08-11T07:36:32.326Z,101339.47
2022-08-11T07:46:59.384Z,101332.00
2022-08-11T07:57:54.054Z,101325.56
2022-08-11T08:08:07.389Z,101330.69
2022-08-11T08:18:26.183Z,101331.84
2022-08-11T08:28:32.488Z,101322.94
2022-08-11T08:38:38.445Z,101330.03
2022-08-11T08:48:43.946Z,101325.91
2022-08-11T08:58:49.407Z,101316.25
2022-08-11T09:08:55.275Z,101316.25
2022-08-11T09:19:00.484Z,101317.09
2022-08-11T09:29:04.705Z,101317.09
2022-08-11T09:39:26.348Z,101310.00
2022-08-11T09:49:29.625Z,101298.41
2022-08-11T09:59:32.764Z,101300.31
2022-08-11T10:09:56.212Z,101279.97
2022-08-11T10:20:05.145Z,101269.59
2022-08-11T10:30:26.900Z,101256.25
2022-08-11T10:40:30.351Z,101268.13
2022-08-11T10:50:51.329Z,101246.88
2022-08-11T11:00:56.977Z,101224.47
2022-08-11T11:11:01.554Z,101220.25
2022-08-11T11:21:16.646Z,101202.63
2022-08-11T11:31:34.215Z,101187.56
2022-08-11T11:41:36.606Z,101183.13
2022-08-11T11:51:45.549Z,101177.28
2022-08-11T12:01:52.854Z,101174.47
2022-08-11T12:12:13.696Z,101167.22
2022-08-11T12:22:34.528Z,101147.84
2022-08-11T12:32:40.812Z,101135.28
2022-08-11T12:43:08.217Z,101111.97
2022-08-11T12:53:27.680Z,101109.28
2022-08-11T13:03:52.416Z,101093.50
2022-08-11T13:13:58.771Z,101091.34
2022-08-11T13:24:03.532Z,101074.63
2022-08-11T13:34:08.518Z,101069.31
2022-08-11T13:44:15.643Z,101061.69
2022-08-11T13:54:25.478Z,101053.69
2022-08-11T14:04:34.012Z,101052.34
2022-08-11T14:14:36.332Z,101027.38
2022-08-11T14:24:49.712Z,101013.25
2022-08-11T14:34:52.219Z,101006.09
2022-08-11T14:45:19.657Z,101006.94
2022-08-11T14:55:46.790Z,100988.94
2022-08-11T15:05:56.794Z,100983.44
2022-08-11T15:16:18.514Z,100974.28
2022-08-11T15:26:47.954Z,100970.78
2022-08-11T15:37:12.050Z,100959.81
2022-08-11T15:47:14.437Z,100951.34
2022-08-11T15:57:40.050Z,100940.19
2022-08-11T16:07:49.187Z,100941.69
2022-08-11T16:17:56.048Z,100927.88
2022-08-11T16:28:08.079Z,100919.88
2022-08-11T16:38:30.808Z,100910.09
2022-08-11T16:48:38.676Z,100906.94
2022-08-11T16:59:02.445Z,100905.59
2022-08-11T17:09:23.215Z,100898.94
2022-08-11T17:20:39.648Z,100898.44
2022-08-11T17:29:58.091Z,100895.63
2022-08-11T17:40:02.662Z,100889.31
2022-08-11T17:50:09.232Z,100888.78
2022-08-11T18:00:19.235Z,100891.44
2022-08-11T18:10:40.268Z,100892.94
2022-08-11T18:21:01.018Z,100903.09
2022-08-11T18:31:24.098Z,100897.91
2022-08-11T18:41:51.122Z,100903.38
2022-08-11T18:52:13.431Z,100904.66
2022-08-11T19:02:49.373Z,100912.72
2022-08-11T19:13:10.982Z,100927.44
2022-08-11T19:23:33.704Z,100943.25
2022-08-11T19:34:02.791Z,100956.25
2022-08-11T19:44:31.934Z,100959.69
2022-08-11T19:54:55.134Z,100960.41
2022-08-11T20:05:15.595Z,100963.84
2022-08-11T20:15:39.568Z,100978.47
2022-08-11T20:26:14.043Z,100984.34
2022-08-11T20:36:41.060Z,100997.28
2022-08-11T20:47:03.319Z,100989.53
2022-08-11T20:57:57.796Z,100994.66
2022-08-11T21:08:09.600Z,101006.91
2022-08-11T21:18:36.993Z,101008.34
2022-08-11T21:29:01.058Z,100997.84
2022-08-11T21:39:25.135Z,101001.59
2022-08-11T21:49:49.816Z,101004.78
2022-08-11T22:00:16.638Z,101010.84
2022-08-11T22:10:42.297Z,101018.59
2022-08-11T22:21:03.676Z,101017.63
2022-08-11T22:31:27.040Z,101019.34
2022-08-11T22:41:47.518Z,101025.75
2022-08-11T22:52:09.141Z,101019.53
2022-08-11T23:02:30.485Z,101012.19
2022-08-11T23:12:52.031Z,101014.06
2022-08-11T23:23:14.071Z,101022.50
2022-08-11T23:33:36.247Z,101022.25
2022-08-11T23:43:57.213Z,101026.56
2022-08-11T23:54:18.280Z,101024.69
